sensor_id;sensor_type;location;lat;lon;timestamp;P1;durP1;ratioP1;P2;durP2;ratioP2
3131;SDS011;62090;52.330;9.104;2023-04-19T00:02:19;9.00;;;5.50;;
3131;SDS011;62090;52.330;9.104;2023-04-19T00:04:49;13.17;;;5.90;;
3131;SDS011;62090;52.330;9.104;2023-04-19T00:07:21;7.57;;;5.10;;
3131;SDS011;62090;52.330;9.104;2023-04-19T00:09:51;8.63;;;5.33;;
3131;SDS011;62090;52.330;9.104;2023-04-19T00:12:23;9.53;;;5.20;;
3131;SDS011;62090;52.330;9.104;2023-04-19T00:14:53;10.60;;;6.00;;
3131;SDS011;62090;52.330;9.104;2023-04-19T00:17:23;10.03;;;5.30;;
3131;SDS011;62090;52.330;9.104;2023-04-19T00:19:53;7.10;;;4.80;;
3131;SDS011;62090;52.330;9.104;2023-04-19T00:22:23;6.07;;;4.40;;
3131;SDS011;62090;52.330;9.104;2023-04-19T00:24:53;8.37;;;5.20;;
3131;SDS011;62090;52.330;9.104;2023-04-19T00:27:25;9.63;;;6.07;;
3131;SDS011;62090;52.330;9.104;2023-04-19T00:29:55;7.67;;;5.40;;
3131;SDS011;62090;52.330;9.104;2023-04-19T00:32:25;7.80;;;4.50;;
3131;SDS011;62090;52.330;9.104;2023-04-19T00:34:56;7.93;;;5.00;;
3131;SDS011;62090;52.330;9.104;2023-04-19T00:37:26;21.43;;;5.30;;
3131;SDS011;62090;52.330;9.104;2023-04-19T00:39:56;7.87;;;5.30;;
3131;SDS011;62090;52.330;9.104;2023-04-19T00:42:28;10.07;;;4.93;;
3131;SDS011;62090;52.330;9.104;2023-04-19T00:44:58;8.87;;;4.13;;
3131;SDS011;62090;52.330;9.104;2023-04-19T00:47:29;6.77;;;4.17;;
3131;SDS011;62090;52.330;9.104;2023-04-19T00:49:59;9.53;;;4.00;;
3131;SDS011;62090;52.330;9.104;2023-04-19T00:52:28;11.40;;;4.30;;
3131;SDS011;62090;52.330;9.104;2023-04-19T00:54:58;8.77;;;4.37;;
3131;SDS011;62090;52.330;9.104;2023-04-19T00:57:32;9.20;;;4.67;;
3131;SDS011;62090;52.330;9.104;2023-04-19T01:00:02;7.60;;;4.00;;
3131;SDS011;62090;52.330;9.104;2023-04-19T01:02:35;4.33;;;3.17;;
3131;SDS011;62090;52.330;9.104;2023-04-19T01:05:05;6.60;;;3.73;;
3131;SDS011;62090;52.330;9.104;2023-04-19T01:07:38;5.27;;;3.23;;
3131;SDS011;62090;52.330;9.104;2023-04-19T01:10:08;6.33;;;3.60;;
3131;SDS011;62090;52.330;9.104;2023-04-19T01:12:42;8.20;;;3.67;;
3131;SDS011;62090;52.330;9.104;2023-04-19T01:15:12;6.00;;;3.40;;
3131;SDS011;62090;52.330;9.104;2023-04-19T01:17:42;8.87;;;3.73;;
3131;SDS011;62090;52.330;9.104;2023-04-19T01:20:12;8.07;;;3.40;;
3131;SDS011;62090;52.330;9.104;2023-04-19T01:22:44;4.83;;;2.70;;
3131;SDS011;62090;52.330;9.104;2023-04-19T01:25:14;11.07;;;3.40;;
3131;SDS011;62090;52.330;9.104;2023-04-19T01:27:44;6.30;;;2.93;;
3131;SDS011;62090;52.330;9.104;2023-04-19T01:30:14;8.23;;;2.80;;
3131;SDS011;62090;52.330;9.104;2023-04-19T01:32:44;11.53;;;3.20;;
3131;SDS011;62090;52.330;9.104;2023-04-19T01:35:14;11.30;;;2.93;;
3131;SDS011;62090;52.330;9.104;2023-04-19T01:37:46;8.10;;;3.33;;
3131;SDS011;62090;52.330;9.104;2023-04-19T01:40:16;6.57;;;3.53;;
3131;SDS011;62090;52.330;9.104;2023-04-19T01:42:46;9.87;;;3.23;;
3131;SDS011;62090;52.330;9.104;2023-04-19T01:45:16;6.40;;;3.23;;
3131;SDS011;62090;52.330;9.104;2023-04-19T01:47:49;5.47;;;3.30;;
3131;SDS011;62090;52.330;9.104;2023-04-19T01:50:19;7.80;;;2.87;;
3131;SDS011;62090;52.330;9.104;2023-04-19T01:52:52;3.97;;;2.67;;
3131;SDS011;62090;52.330;9.104;2023-04-19T01:55:21;6.87;;;2.93;;
3131;SDS011;62090;52.330;9.104;2023-04-19T01:57:51;5.60;;;2.50;;
3131;SDS011;62090;52.330;9.104;2023-04-19T02:00:22;6.37;;;3.00;;
3131;SDS011;62090;52.330;9.104;2023-04-19T02:02:52;7.57;;;3.70;;
3131;SDS011;62090;52.330;9.104;2023-04-19T02:05:22;5.73;;;3.03;;
3131;SDS011;62090;52.330;9.104;2023-04-19T02:07:55;4.70;;;2.40;;
3131;SDS011;62090;52.330;9.104;2023-04-19T02:10:29;10.33;;;3.10;;
3131;SDS011;62090;52.330;9.104;2023-04-19T02:12:59;4.43;;;2.80;;
3131;SDS011;62090;52.330;9.104;2023-04-19T02:15:29;7.47;;;3.10;;
3131;SDS011;62090;52.330;9.104;2023-04-19T02:17:58;5.63;;;3.00;;
3131;SDS011;62090;52.330;9.104;2023-04-19T02:20:32;3.70;;;2.37;;
3131;SDS011;62090;52.330;9.104;2023-04-19T02:23:05;4.97;;;3.00;;
3131;SDS011;62090;52.330;9.104;2023-04-19T02:25:34;8.93;;;3.03;;
3131;SDS011;62090;52.330;9.104;2023-04-19T02:28:05;5.30;;;2.93;;
3131;SDS011;62090;52.330;9.104;2023-04-19T02:30:36;5.97;;;3.07;;
3131;SDS011;62090;52.330;9.104;2023-04-19T02:33:06;5.23;;;2.97;;
3131;SDS011;62090;52.330;9.104;2023-04-19T02:35:36;7.07;;;3.30;;
3131;SDS011;62090;52.330;9.104;2023-04-19T02:38:08;5.73;;;2.60;;
3131;SDS011;62090;52.330;9.104;2023-04-19T02:40:38;5.53;;;3.40;;
3131;SDS011;62090;52.330;9.104;2023-04-19T02:43:08;4.00;;;2.80;;
3131;SDS011;62090;52.330;9.104;2023-04-19T02:45:37;3.80;;;2.70;;
3131;SDS011;62090;52.330;9.104;2023-04-19T02:48:07;9.20;;;3.03;;
3131;SDS011;62090;52.330;9.104;2023-04-19T02:50:37;9.80;;;4.80;;
3131;SDS011;62090;52.330;9.104;2023-04-19T02:53:10;6.53;;;2.80;;
3131;SDS011;62090;52.330;9.104;2023-04-19T02:55:40;5.03;;;3.50;;
3131;SDS011;62090;52.330;9.104;2023-04-19T02:58:14;5.33;;;3.10;;
3131;SDS011;62090;52.330;9.104;2023-04-19T03:01:04;7.00;;;2.93;;
3131;SDS011;62090;52.330;9.104;2023-04-19T03:03:34;4.37;;;2.67;;
3131;SDS011;62090;52.330;9.104;2023-04-19T03:06:04;6.83;;;3.37;;
3131;SDS011;62090;52.330;9.104;2023-04-19T03:08:38;5.57;;;3.10;;
3131;SDS011;62090;52.330;9.104;2023-04-19T03:11:07;7.77;;;3.37;;
3131;SDS011;62090;52.330;9.104;2023-04-19T03:13:37;6.37;;;3.13;;
3131;SDS011;62090;52.330;9.104;2023-04-19T03:16:08;6.10;;;3.10;;
3131;SDS011;62090;52.330;9.104;2023-04-19T03:18:40;6.40;;;2.70;;
3131;SDS011;62090;52.330;9.104;2023-04-19T03:21:11;7.50;;;3.10;;
3131;SDS011;62090;52.330;9.104;2023-04-19T03:23:50;5.33;;;2.50;;
3131;SDS011;62090;52.330;9.104;2023-04-19T03:26:20;5.30;;;2.80;;
3131;SDS011;62090;52.330;9.104;2023-04-19T03:28:52;8.53;;;3.53;;
3131;SDS011;62090;52.330;9.104;2023-04-19T03:31:32;11.40;;;3.53;;
3131;SDS011;62090;52.330;9.104;2023-04-19T03:34:02;3.77;;;3.00;;
3131;SDS011;62090;52.330;9.104;2023-04-19T03:36:38;4.73;;;2.80;;
3131;SDS011;62090;52.330;9.104;2023-04-19T03:39:11;5.27;;;2.77;;
3131;SDS011;62090;52.330;9.104;2023-04-19T03:41:44;8.83;;;2.80;;
3131;SDS011;62090;52.330;9.104;2023-04-19T03:44:24;4.73;;;2.73;;
3131;SDS011;62090;52.330;9.104;2023-04-19T03:46:54;6.93;;;3.00;;
3131;SDS011;62090;52.330;9.104;2023-04-19T03:49:27;5.57;;;2.93;;
3131;SDS011;62090;52.330;9.104;2023-04-19T03:52:04;10.40;;;3.27;;
3131;SDS011;62090;52.330;9.104;2023-04-19T03:54:36;4.47;;;3.07;;
3131;SDS011;62090;52.330;9.104;2023-04-19T03:57:14;5.73;;;3.13;;
3131;SDS011;62090;52.330;9.104;2023-04-19T03:59:46;8.10;;;3.43;;
3131;SDS011;62090;52.330;9.104;2023-04-19T04:02:17;5.07;;;3.00;;
3131;SDS011;62090;52.330;9.104;2023-04-19T04:04:51;6.53;;;2.90;;
3131;SDS011;62090;52.330;9.104;2023-04-19T04:07:23;9.07;;;4.00;;
3131;SDS011;62090;52.330;9.104;2023-04-19T04:09:55;6.60;;;3.37;;
3131;SDS011;62090;52.330;9.104;2023-04-19T04:12:25;9.00;;;3.27;;
3131;SDS011;62090;52.330;9.104;2023-04-19T04:14:56;5.33;;;3.30;;
3131;SDS011;62090;52.330;9.104;2023-04-19T04:17:26;5.50;;;2.93;;
3131;SDS011;62090;52.330;9.104;2023-04-19T04:19:56;5.07;;;2.60;;
3131;SDS011;62090;52.330;9.104;2023-04-19T04:22:29;4.83;;;3.10;;
3131;SDS011;62090;52.330;9.104;2023-04-19T04:25:02;9.17;;;5.00;;
3131;SDS011;62090;52.330;9.104;2023-04-19T04:27:36;10.10;;;4.73;;
3131;SDS011;62090;52.330;9.104;2023-04-19T04:30:11;11.00;;;3.93;;
3131;SDS011;62090;52.330;9.104;2023-04-19T04:32:41;6.30;;;3.20;;
3131;SDS011;62090;52.330;9.104;2023-04-19T04:35:13;8.07;;;3.50;;
3131;SDS011;62090;52.330;9.104;2023-04-19T04:37:55;3.03;;;2.73;;
3131;SDS011;62090;52.330;9.104;2023-04-19T04:40:28;5.73;;;3.20;;
3131;SDS011;62090;52.330;9.104;2023-04-19T04:42:58;7.00;;;3.67;;
3131;SDS011;62090;52.330;9.104;2023-04-19T04:45:31;10.00;;;3.00;;
3131;SDS011;62090;52.330;9.104;2023-04-19T04:48:02;7.30;;;3.50;;
3131;SDS011;62090;52.330;9.104;2023-04-19T04:50:32;4.43;;;3.20;;
3131;SDS011;62090;52.330;9.104;2023-04-19T04:53:02;6.83;;;3.73;;
3131;SDS011;62090;52.330;9.104;2023-04-19T04:55:35;8.00;;;3.60;;
3131;SDS011;62090;52.330;9.104;2023-04-19T04:58:05;7.97;;;3.83;;
3131;SDS011;62090;52.330;9.104;2023-04-19T05:00:48;5.83;;;3.07;;
3131;SDS011;62090;52.330;9.104;2023-04-19T05:03:18;11.80;;;3.30;;
3131;SDS011;62090;52.330;9.104;2023-04-19T05:05:53;6.00;;;2.87;;
3131;SDS011;62090;52.330;9.104;2023-04-19T05:08:23;5.43;;;2.70;;
3131;SDS011;62090;52.330;9.104;2023-04-19T05:11:01;4.70;;;2.73;;
3131;SDS011;62090;52.330;9.104;2023-04-19T05:13:31;7.57;;;3.07;;
3131;SDS011;62090;52.330;9.104;2023-04-19T05:16:02;4.90;;;3.00;;
3131;SDS011;62090;52.330;9.104;2023-04-19T05:18:33;6.60;;;3.33;;
3131;SDS011;62090;52.330;9.104;2023-04-19T05:21:04;7.80;;;3.20;;
3131;SDS011;62090;52.330;9.104;2023-04-19T05:23:37;10.17;;;3.40;;
3131;SDS011;62090;52.330;9.104;2023-04-19T05:26:10;6.03;;;2.80;;
3131;SDS011;62090;52.330;9.104;2023-04-19T05:28:42;7.77;;;3.27;;
3131;SDS011;62090;52.330;9.104;2023-04-19T05:31:20;5.17;;;3.00;;
3131;SDS011;62090;52.330;9.104;2023-04-19T05:34:04;7.73;;;3.00;;
3131;SDS011;62090;52.330;9.104;2023-04-19T05:36:33;6.20;;;3.00;;
3131;SDS011;62090;52.330;9.104;2023-04-19T05:39:03;8.20;;;3.23;;
3131;SDS011;62090;52.330;9.104;2023-04-19T05:41:36;6.10;;;2.53;;
3131;SDS011;62090;52.330;9.104;2023-04-19T05:44:06;6.20;;;3.10;;
3131;SDS011;62090;52.330;9.104;2023-04-19T05:46:36;6.07;;;2.77;;
3131;SDS011;62090;52.330;9.104;2023-04-19T05:49:09;8.17;;;2.93;;
3131;SDS011;62090;52.330;9.104;2023-04-19T05:51:57;6.77;;;3.63;;
3131;SDS011;62090;52.330;9.104;2023-04-19T05:54:39;7.53;;;3.40;;
3131;SDS011;62090;52.330;9.104;2023-04-19T05:57:12;5.80;;;3.10;;
3131;SDS011;62090;52.330;9.104;2023-04-19T05:59:42;6.20;;;2.90;;
3131;SDS011;62090;52.330;9.104;2023-04-19T06:02:15;3.87;;;2.40;;
3131;SDS011;62090;52.330;9.104;2023-04-19T06:04:46;4.13;;;2.73;;
3131;SDS011;62090;52.330;9.104;2023-04-19T06:07:16;4.23;;;2.60;;
3131;SDS011;62090;52.330;9.104;2023-04-19T06:09:59;13.73;;;2.63;;
3131;SDS011;62090;52.330;9.104;2023-04-19T06:12:32;4.40;;;2.70;;
3131;SDS011;62090;52.330;9.104;2023-04-19T06:15:02;9.60;;;3.20;;
3131;SDS011;62090;52.330;9.104;2023-04-19T06:17:32;9.43;;;2.90;;
3131;SDS011;62090;52.330;9.104;2023-04-19T06:20:02;5.40;;;2.70;;
3131;SDS011;62090;52.330;9.104;2023-04-19T06:22:33;10.57;;;3.20;;
3131;SDS011;62090;52.330;9.104;2023-04-19T06:25:04;5.93;;;3.33;;
3131;SDS011;62090;52.330;9.104;2023-04-19T06:27:36;5.87;;;2.73;;
3131;SDS011;62090;52.330;9.104;2023-04-19T06:30:06;5.87;;;2.33;;
3131;SDS011;62090;52.330;9.104;2023-04-19T06:32:38;7.30;;;2.80;;
3131;SDS011;62090;52.330;9.104;2023-04-19T06:35:08;6.57;;;2.93;;
3131;SDS011;62090;52.330;9.104;2023-04-19T06:37:38;8.93;;;2.47;;
3131;SDS011;62090;52.330;9.104;2023-04-19T06:40:08;7.43;;;2.50;;
3131;SDS011;62090;52.330;9.104;2023-04-19T06:42:41;3.43;;;2.70;;
3131;SDS011;62090;52.330;9.104;2023-04-19T06:45:11;8.20;;;2.87;;
3131;SDS011;62090;52.330;9.104;2023-04-19T06:47:41;5.10;;;2.70;;
3131;SDS011;62090;52.330;9.104;2023-04-19T06:50:11;3.63;;;2.30;;
3131;SDS011;62090;52.330;9.104;2023-04-19T06:52:41;14.40;;;2.90;;
3131;SDS011;62090;52.330;9.104;2023-04-19T06:55:11;3.30;;;2.37;;
3131;SDS011;62090;52.330;9.104;2023-04-19T06:57:43;4.90;;;2.47;;
3131;SDS011;62090;52.330;9.104;2023-04-19T07:00:13;6.70;;;2.60;;
3131;SDS011;62090;52.330;9.104;2023-04-19T07:02:44;5.00;;;3.13;;
3131;SDS011;62090;52.330;9.104;2023-04-19T07:05:14;9.33;;;3.83;;
3131;SDS011;62090;52.330;9.104;2023-04-19T07:07:44;3.83;;;2.40;;
3131;SDS011;62090;52.330;9.104;2023-04-19T07:10:13;3.57;;;2.30;;
3131;SDS011;62090;52.330;9.104;2023-04-19T07:12:46;4.03;;;2.60;;
3131;SDS011;62090;52.330;9.104;2023-04-19T07:15:16;6.73;;;2.63;;
3131;SDS011;62090;52.330;9.104;2023-04-19T07:17:46;6.80;;;2.00;;
3131;SDS011;62090;52.330;9.104;2023-04-19T07:20:15;7.27;;;2.87;;
3131;SDS011;62090;52.330;9.104;2023-04-19T07:22:45;3.80;;;2.20;;
3131;SDS011;62090;52.330;9.104;2023-04-19T07:25:17;4.23;;;2.13;;
3131;SDS011;62090;52.330;9.104;2023-04-19T07:27:49;6.47;;;2.83;;
3131;SDS011;62090;52.330;9.104;2023-04-19T07:30:21;6.07;;;2.20;;
3131;SDS011;62090;52.330;9.104;2023-04-19T07:32:51;5.27;;;2.13;;
3131;SDS011;62090;52.330;9.104;2023-04-19T07:35:21;7.23;;;2.67;;
3131;SDS011;62090;52.330;9.104;2023-04-19T07:37:51;4.70;;;2.20;;
3131;SDS011;62090;52.330;9.104;2023-04-19T07:40:20;2.90;;;2.30;;
3131;SDS011;62090;52.330;9.104;2023-04-19T07:42:53;4.90;;;2.50;;
3131;SDS011;62090;52.330;9.104;2023-04-19T07:45:23;4.27;;;2.13;;
3131;SDS011;62090;52.330;9.104;2023-04-19T07:47:53;4.77;;;2.30;;
3131;SDS011;62090;52.330;9.104;2023-04-19T07:50:24;4.50;;;2.10;;
3131;SDS011;62090;52.330;9.104;2023-04-19T07:52:54;4.87;;;2.77;;
3131;SDS011;62090;52.330;9.104;2023-04-19T07:55:24;3.70;;;2.00;;
3131;SDS011;62090;52.330;9.104;2023-04-19T07:57:56;5.93;;;2.23;;
3131;SDS011;62090;52.330;9.104;2023-04-19T08:00:26;7.87;;;2.50;;
3131;SDS011;62090;52.330;9.104;2023-04-19T08:02:57;4.30;;;1.93;;
3131;SDS011;62090;52.330;9.104;2023-04-19T08:05:27;5.90;;;2.60;;
3131;SDS011;62090;52.330;9.104;2023-04-19T08:07:57;7.23;;;2.50;;
3131;SDS011;62090;52.330;9.104;2023-04-19T08:10:27;4.83;;;2.50;;
3131;SDS011;62090;52.330;9.104;2023-04-19T08:13:01;4.50;;;2.20;;
3131;SDS011;62090;52.330;9.104;2023-04-19T08:15:32;8.83;;;2.67;;
3131;SDS011;62090;52.330;9.104;2023-04-19T08:18:22;6.83;;;2.23;;
3131;SDS011;62090;52.330;9.104;2023-04-19T08:20:52;6.17;;;2.20;;
3131;SDS011;62090;52.330;9.104;2023-04-19T08:23:22;3.20;;;2.27;;
3131;SDS011;62090;52.330;9.104;2023-04-19T08:26:03;3.80;;;2.40;;
3131;SDS011;62090;52.330;9.104;2023-04-19T08:28:36;7.00;;;3.47;;
3131;SDS011;62090;52.330;9.104;2023-04-19T08:31:05;4.20;;;2.70;;
3131;SDS011;62090;52.330;9.104;2023-04-19T08:33:35;4.43;;;1.73;;
3131;SDS011;62090;52.330;9.104;2023-04-19T08:36:06;3.80;;;2.33;;
3131;SDS011;62090;52.330;9.104;2023-04-19T08:38:38;4.27;;;2.20;;
3131;SDS011;62090;52.330;9.104;2023-04-19T08:41:14;6.23;;;2.10;;
3131;SDS011;62090;52.330;9.104;2023-04-19T08:43:49;5.73;;;2.40;;
3131;SDS011;62090;52.330;9.104;2023-04-19T08:46:20;4.77;;;2.17;;
3131;SDS011;62090;52.330;9.104;2023-04-19T08:48:52;9.63;;;2.40;;
3131;SDS011;62090;52.330;9.104;2023-04-19T08:51:23;4.57;;;2.37;;
3131;SDS011;62090;52.330;9.104;2023-04-19T08:53:54;5.60;;;2.37;;
3131;SDS011;62090;52.330;9.104;2023-04-19T08:56:25;3.23;;;1.90;;
3131;SDS011;62090;52.330;9.104;2023-04-19T08:59:03;4.67;;;2.20;;
3131;SDS011;62090;52.330;9.104;2023-04-19T09:01:44;3.27;;;1.80;;
3131;SDS011;62090;52.330;9.104;2023-04-19T09:04:15;5.10;;;2.23;;
3131;SDS011;62090;52.330;9.104;2023-04-19T09:07:01;3.67;;;2.17;;
3131;SDS011;62090;52.330;9.104;2023-04-19T09:09:31;3.10;;;2.10;;
3131;SDS011;62090;52.330;9.104;2023-04-19T09:12:14;2.53;;;1.90;;
3131;SDS011;62090;52.330;9.104;2023-04-19T09:14:48;4.70;;;1.90;;
3131;SDS011;62090;52.330;9.104;2023-04-19T09:17:21;3.57;;;1.93;;
3131;SDS011;62090;52.330;9.104;2023-04-19T09:19:50;6.33;;;2.47;;
3131;SDS011;62090;52.330;9.104;2023-04-19T09:22:20;2.13;;;1.50;;
3131;SDS011;62090;52.330;9.104;2023-04-19T09:24:50;6.90;;;2.50;;
3131;SDS011;62090;52.330;9.104;2023-04-19T09:27:25;3.20;;;1.60;;
3131;SDS011;62090;52.330;9.104;2023-04-19T09:30:00;6.27;;;1.70;;
3131;SDS011;62090;52.330;9.104;2023-04-19T09:32:46;4.50;;;1.60;;
3131;SDS011;62090;52.330;9.104;2023-04-19T09:35:17;2.07;;;1.87;;
3131;SDS011;62090;52.330;9.104;2023-04-19T09:37:58;6.57;;;2.00;;
3131;SDS011;62090;52.330;9.104;2023-04-19T09:40:32;3.63;;;1.87;;
3131;SDS011;62090;52.330;9.104;2023-04-19T09:43:02;5.00;;;1.80;;
3131;SDS011;62090;52.330;9.104;2023-04-19T09:45:55;6.53;;;2.00;;
3131;SDS011;62090;52.330;9.104;2023-04-19T09:48:25;6.70;;;1.63;;
3131;SDS011;62090;52.330;9.104;2023-04-19T09:50:55;3.70;;;1.50;;
3131;SDS011;62090;52.330;9.104;2023-04-19T09:53:33;2.40;;;1.80;;
3131;SDS011;62090;52.330;9.104;2023-04-19T09:56:03;2.30;;;1.73;;
3131;SDS011;62090;52.330;9.104;2023-04-19T09:58:33;8.93;;;2.60;;
3131;SDS011;62090;52.330;9.104;2023-04-19T10:01:19;17.40;;;1.87;;
3131;SDS011;62090;52.330;9.104;2023-04-19T10:03:49;3.60;;;2.30;;
3131;SDS011;62090;52.330;9.104;2023-04-19T10:06:21;3.50;;;1.63;;
3131;SDS011;62090;52.330;9.104;2023-04-19T10:09:12;8.13;;;2.00;;
3131;SDS011;62090;52.330;9.104;2023-04-19T10:11:45;3.23;;;1.80;;
3131;SDS011;62090;52.330;9.104;2023-04-19T10:14:24;3.83;;;1.80;;
3131;SDS011;62090;52.330;9.104;2023-04-19T10:16:56;3.97;;;1.73;;
3131;SDS011;62090;52.330;9.104;2023-04-19T10:19:26;4.90;;;2.13;;
3131;SDS011;62090;52.330;9.104;2023-04-19T10:21:57;4.80;;;1.50;;
3131;SDS011;62090;52.330;9.104;2023-04-19T10:24:30;2.37;;;1.63;;
3131;SDS011;62090;52.330;9.104;2023-04-19T10:27:05;6.60;;;1.70;;
3131;SDS011;62090;52.330;9.104;2023-04-19T10:29:53;2.33;;;1.67;;
3131;SDS011;62090;52.330;9.104;2023-04-19T10:32:28;3.77;;;1.70;;
3131;SDS011;62090;52.330;9.104;2023-04-19T10:35:00;4.10;;;2.20;;
3131;SDS011;62090;52.330;9.104;2023-04-19T10:37:30;4.43;;;1.93;;
3131;SDS011;62090;52.330;9.104;2023-04-19T10:40:00;4.97;;;1.87;;
3131;SDS011;62090;52.330;9.104;2023-04-19T10:45:46;2.27;;;1.30;;
3131;SDS011;62090;52.330;9.104;2023-04-19T10:48:35;2.73;;;1.70;;
3131;SDS011;62090;52.330;9.104;2023-04-19T10:51:13;3.33;;;1.80;;
3131;SDS011;62090;52.330;9.104;2023-04-19T10:53:45;3.50;;;1.60;;
3131;SDS011;62090;52.330;9.104;2023-04-19T10:56:20;3.00;;;1.73;;
3131;SDS011;62090;52.330;9.104;2023-04-19T10:59:14;3.33;;;1.73;;
3131;SDS011;62090;52.330;9.104;2023-04-19T11:01:51;5.53;;;2.33;;
3131;SDS011;62090;52.330;9.104;2023-04-19T11:07:39;3.53;;;1.70;;
3131;SDS011;62090;52.330;9.104;2023-04-19T11:10:10;1.83;;;1.47;;
3131;SDS011;62090;52.330;9.104;2023-04-19T11:12:41;7.57;;;1.87;;
3131;SDS011;62090;52.330;9.104;2023-04-19T11:15:12;3.60;;;1.60;;
3131;SDS011;62090;52.330;9.104;2023-04-19T11:17:41;6.87;;;1.97;;
3131;SDS011;62090;52.330;9.104;2023-04-19T11:20:14;4.53;;;1.67;;
3131;SDS011;62090;52.330;9.104;2023-04-19T11:22:44;6.70;;;1.60;;
3131;SDS011;62090;52.330;9.104;2023-04-19T11:25:15;2.80;;;1.40;;
3131;SDS011;62090;52.330;9.104;2023-04-19T11:27:48;2.93;;;1.70;;
3131;SDS011;62090;52.330;9.104;2023-04-19T11:30:20;3.40;;;1.63;;
3131;SDS011;62090;52.330;9.104;2023-04-19T11:32:51;9.07;;;1.80;;
3131;SDS011;62090;52.330;9.104;2023-04-19T11:35:26;7.70;;;1.50;;
3131;SDS011;62090;52.330;9.104;2023-04-19T11:37:57;4.30;;;1.33;;
3131;SDS011;62090;52.330;9.104;2023-04-19T11:40:27;4.17;;;1.30;;
3131;SDS011;62090;52.330;9.104;2023-04-19T11:42:58;9.33;;;1.40;;
3131;SDS011;62090;52.330;9.104;2023-04-19T11:45:29;7.53;;;1.20;;
3131;SDS011;62090;52.330;9.104;2023-04-19T11:48:06;1.67;;;1.23;;
3131;SDS011;62090;52.330;9.104;2023-04-19T11:50:44;4.03;;;1.30;;
3131;SDS011;62090;52.330;9.104;2023-04-19T11:53:16;3.43;;;1.47;;
3131;SDS011;62090;52.330;9.104;2023-04-19T11:55:47;6.10;;;1.30;;
3131;SDS011;62090;52.330;9.104;2023-04-19T11:58:26;6.40;;;1.70;;
3131;SDS011;62090;52.330;9.104;2023-04-19T12:01:01;2.77;;;1.80;;
3131;SDS011;62090;52.330;9.104;2023-04-19T12:03:32;6.00;;;1.93;;
3131;SDS011;62090;52.330;9.104;2023-04-19T12:06:05;4.77;;;1.80;;
3131;SDS011;62090;52.330;9.104;2023-04-19T12:08:42;4.10;;;1.83;;
3131;SDS011;62090;52.330;9.104;2023-04-19T12:11:13;8.50;;;1.83;;
3131;SDS011;62090;52.330;9.104;2023-04-19T12:13:44;4.93;;;1.80;;
3131;SDS011;62090;52.330;9.104;2023-04-19T12:16:14;2.70;;;1.20;;
3131;SDS011;62090;52.330;9.104;2023-04-19T12:18:55;5.80;;;1.40;;
3131;SDS011;62090;52.330;9.104;2023-04-19T12:21:28;6.13;;;1.83;;
3131;SDS011;62090;52.330;9.104;2023-04-19T12:24:00;5.13;;;1.43;;
3131;SDS011;62090;52.330;9.104;2023-04-19T12:26:30;2.70;;;1.57;;
3131;SDS011;62090;52.330;9.104;2023-04-19T12:29:00;3.43;;;1.60;;
3131;SDS011;62090;52.330;9.104;2023-04-19T12:31:31;3.83;;;2.10;;
3131;SDS011;62090;52.330;9.104;2023-04-19T12:34:01;2.87;;;1.77;;
3131;SDS011;62090;52.330;9.104;2023-04-19T12:36:34;5.20;;;1.77;;
3131;SDS011;62090;52.330;9.104;2023-04-19T12:39:03;9.00;;;2.20;;
3131;SDS011;62090;52.330;9.104;2023-04-19T12:41:34;4.27;;;2.07;;
3131;SDS011;62090;52.330;9.104;2023-04-19T12:44:04;7.10;;;2.30;;
3131;SDS011;62090;52.330;9.104;2023-04-19T12:46:34;2.80;;;1.83;;
3131;SDS011;62090;52.330;9.104;2023-04-19T12:49:05;10.73;;;3.27;;
3131;SDS011;62090;52.330;9.104;2023-04-19T12:51:37;15.33;;;2.33;;
3131;SDS011;62090;52.330;9.104;2023-04-19T12:54:08;5.63;;;2.03;;
3131;SDS011;62090;52.330;9.104;2023-04-19T12:56:38;4.17;;;2.30;;
3131;SDS011;62090;52.330;9.104;2023-04-19T12:59:07;2.50;;;1.77;;
3131;SDS011;62090;52.330;9.104;2023-04-19T13:01:37;3.00;;;1.87;;
3131;SDS011;62090;52.330;9.104;2023-04-19T13:04:07;3.83;;;1.70;;
3131;SDS011;62090;52.330;9.104;2023-04-19T13:06:40;4.43;;;2.10;;
3131;SDS011;62090;52.330;9.104;2023-04-19T13:09:11;2.90;;;1.83;;
3131;SDS011;62090;52.330;9.104;2023-04-19T13:11:41;8.83;;;2.97;;
3131;SDS011;62090;52.330;9.104;2023-04-19T13:14:11;5.30;;;2.30;;
3131;SDS011;62090;52.330;9.104;2023-04-19T13:16:41;3.30;;;2.00;;
3131;SDS011;62090;52.330;9.104;2023-04-19T13:19:11;3.03;;;1.80;;
3131;SDS011;62090;52.330;9.104;2023-04-19T13:21:44;13.00;;;2.10;;
3131;SDS011;62090;52.330;9.104;2023-04-19T13:24:13;4.63;;;2.00;;
3131;SDS011;62090;52.330;9.104;2023-04-19T13:26:44;2.40;;;1.80;;
3131;SDS011;62090;52.330;9.104;2023-04-19T13:29:14;5.27;;;2.20;;
3131;SDS011;62090;52.330;9.104;2023-04-19T13:31:44;4.87;;;2.60;;
3131;SDS011;62090;52.330;9.104;2023-04-19T13:34:15;8.50;;;2.50;;
3131;SDS011;62090;52.330;9.104;2023-04-19T13:36:47;2.40;;;2.00;;
3131;SDS011;62090;52.330;9.104;2023-04-19T13:39:17;5.70;;;2.57;;
3131;SDS011;62090;52.330;9.104;2023-04-19T13:41:47;8.70;;;2.20;;
3131;SDS011;62090;52.330;9.104;2023-04-19T13:44:17;4.90;;;2.37;;
3131;SDS011;62090;52.330;9.104;2023-04-19T13:46:46;3.97;;;2.60;;
3131;SDS011;62090;52.330;9.104;2023-04-19T13:49:16;4.37;;;2.00;;
3131;SDS011;62090;52.330;9.104;2023-04-19T13:51:49;7.83;;;2.60;;
3131;SDS011;62090;52.330;9.104;2023-04-19T13:54:19;5.57;;;2.47;;
3131;SDS011;62090;52.330;9.104;2023-04-19T13:56:49;7.03;;;2.30;;
3131;SDS011;62090;52.330;9.104;2023-04-19T13:59:21;3.60;;;2.23;;
3131;SDS011;62090;52.330;9.104;2023-04-19T14:01:51;5.17;;;2.23;;
3131;SDS011;62090;52.330;9.104;2023-04-19T14:04:22;8.30;;;2.73;;
3131;SDS011;62090;52.330;9.104;2023-04-19T14:06:55;5.23;;;2.40;;
3131;SDS011;62090;52.330;9.104;2023-04-19T14:09:25;9.03;;;2.40;;
3131;SDS011;62090;52.330;9.104;2023-04-19T14:11:54;2.90;;;1.80;;
3131;SDS011;62090;52.330;9.104;2023-04-19T14:14:24;5.00;;;2.43;;
3131;SDS011;62090;52.330;9.104;2023-04-19T14:16:57;8.03;;;2.77;;
3131;SDS011;62090;52.330;9.104;2023-04-19T14:19:27;4.90;;;2.30;;
3131;SDS011;62090;52.330;9.104;2023-04-19T14:22:00;7.27;;;2.70;;
3131;SDS011;62090;52.330;9.104;2023-04-19T14:24:29;3.83;;;2.53;;
3131;SDS011;62090;52.330;9.104;2023-04-19T14:26:59;7.00;;;2.40;;
3131;SDS011;62090;52.330;9.104;2023-04-19T14:29:37;8.43;;;2.37;;
3131;SDS011;62090;52.330;9.104;2023-04-19T14:32:07;7.50;;;2.67;;
3131;SDS011;62090;52.330;9.104;2023-04-19T14:34:52;4.37;;;2.60;;
3131;SDS011;62090;52.330;9.104;2023-04-19T14:37:25;8.57;;;3.00;;
3131;SDS011;62090;52.330;9.104;2023-04-19T14:39:55;7.97;;;3.10;;
3131;SDS011;62090;52.330;9.104;2023-04-19T14:42:24;7.17;;;2.97;;
3131;SDS011;62090;52.330;9.104;2023-04-19T14:44:56;5.90;;;2.63;;
3131;SDS011;62090;52.330;9.104;2023-04-19T14:47:26;6.03;;;3.10;;
3131;SDS011;62090;52.330;9.104;2023-04-19T14:49:56;5.20;;;2.67;;
3131;SDS011;62090;52.330;9.104;2023-04-19T14:52:29;6.57;;;3.30;;
3131;SDS011;62090;52.330;9.104;2023-04-19T14:54:58;5.43;;;3.10;;
3131;SDS011;62090;52.330;9.104;2023-04-19T14:57:28;19.13;;;2.90;;
3131;SDS011;62090;52.330;9.104;2023-04-19T14:59:58;5.17;;;2.73;;
3131;SDS011;62090;52.330;9.104;2023-04-19T15:02:29;7.40;;;2.67;;
3131;SDS011;62090;52.330;9.104;2023-04-19T15:04:59;10.40;;;3.00;;
3131;SDS011;62090;52.330;9.104;2023-04-19T15:07:32;10.00;;;3.00;;
3131;SDS011;62090;52.330;9.104;2023-04-19T15:10:02;10.63;;;2.73;;
3131;SDS011;62090;52.330;9.104;2023-04-19T15:12:32;9.10;;;3.10;;
3131;SDS011;62090;52.330;9.104;2023-04-19T15:15:02;5.33;;;2.40;;
3131;SDS011;62090;52.330;9.104;2023-04-19T15:17:33;4.53;;;2.67;;
3131;SDS011;62090;52.330;9.104;2023-04-19T15:20:03;10.83;;;2.83;;
3131;SDS011;62090;52.330;9.104;2023-04-19T15:22:37;4.73;;;2.63;;
3131;SDS011;62090;52.330;9.104;2023-04-19T15:25:07;7.43;;;2.60;;
3131;SDS011;62090;52.330;9.104;2023-04-19T15:27:37;9.73;;;2.53;;
3131;SDS011;62090;52.330;9.104;2023-04-19T15:30:08;6.00;;;2.70;;
3131;SDS011;62090;52.330;9.104;2023-04-19T15:32:38;8.33;;;2.60;;
3131;SDS011;62090;52.330;9.104;2023-04-19T15:35:10;10.43;;;2.47;;
3131;SDS011;62090;52.330;9.104;2023-04-19T15:37:42;12.00;;;2.87;;